Katowice International Airport

EPKT · 西里西亚省, 波兰

罗盘
风向 的 风向 的 风向 到 风向 330° Katowice International Airport 8/26
风: 14 kt, 4 beaufort

7 kt

12 kt
改变
0 ft 1.000 2.000 3.000 4.000 5.000
Cloud Cloud Cloud Cloud
SCT 3.300
METAR EPKK 041130Z 33014KT 310V010 9999 SCT033 M00/M06 Q1026

METAR Katowice International Airport - EPKT/KTW

Katowice International Airport是,波兰中的中型机场。 该机场有一条跑道: 8/26. 该领域的国际民航组织标志是EPKT 它的国际航空运输协会代码是KTW.

这份报告是针对2023年2月4日 12:30, 当地时间在Kraków John Paul II International Airport进行的。

机场观察

风向为330°,速度为14 kt。 风向在310°和010°之间变化。

可见度为10 km 或者更多。

有疏云,零星散落的云朵在3.300 ft的高度。 没有观察到天花板。

温度为0 °C,阵风为-8 °C。 露点为-6 °C,相对湿度为64%。 海平面上的气压为1026 hPa (QNH)。

白天

今天,太阳从07:14升起,在16:40降落。 这适用于Katowice International Airport,世界夏令时可能有所不同。 当地时间与世界标准时间之间的时差为+1 小时。 当前,没有夏令时有效。

公司介绍

我们没有关于这个机场的公司信息。

体会

到Vliegles.nl去找飞行课程,跳伞和其他飞行体验。 浏览页面,了解Katowice International Airport附近所有可用的活动。 你也可以使用搜索功能来寻找你所在地附近的特定飞行课程、跳伞或其他飞行体验。

跑道

Id 标题 侧风 逆风 侧风 %
8/26 090°-270° 12 kt 7 kt 87 %

逆风成分最大的方向会被突出显示,并用于横风计算。 这并不一定意味着这个方向在使用。

乌云

3.300 ft SCT 疏云,零星散落的云朵

温度 & 天气

温度 0 °C
露点 -6 °C
相对湿度 64%
风寒 -8 °C
Kp-index 0 (0-9)

白天

日出
07:10
中午
11:54
日落
16:39 (3:58)

小工具

你想在你的网站上有一个关于Katowice International Airport的当前航空天气(METAR)的小部件吗?

显示HTML代码

我们和第三方通过cookies跟踪您在我们网站上的互联网行为。如果你继续,我们认为你同意我们的饼干政策